M I D A S
Marine Information and Data Acquisition System
Tripno 1672 of the Zeeleeuw from 2009-04-06 13:38:23 to 2009-04-07 13:11:26
Back to CruiseResearch ActivitiesStationsMapUnderway DataData graphs

EquipmentUnitsComment
TimeDGPSUTC
LatitudeDGPSDM.mWGS84
LongitudeDGPSDM.mWGS84
HeadingGyrodeg 
SOGDGPSknotsSpeed over ground
COGDGPSdegCourse over ground
DepthEcho soundermeters200 kHz
Missing or incorrect values are displayed as -999
Navigation data collected by the RV Zeeleeuw from 2009-04-06 08:38:26 to 2009-04-07 13:17:48
                                                                                    Next 1000 lines
Time Latitude Longitude Heading SOG COG Depth
2009-04-06 08:38:36 51°13.071 2°50.776 135.4 2.2 95 13.2
2009-04-06 08:38:41 51°13.071 2°50.781 137.3 2.1 95 13.2
2009-04-06 08:38:46 51°13.071 2°50.786 139.6 2 95 13.2
2009-04-06 08:38:51 51°13.071 2°50.79 141.2 2.1 98 13.2
2009-04-06 08:38:56 51°13.07 2°50.795 142.8 2.2 101 13.2
2009-04-06 08:39:01 51°13.069 2°50.799 145.7 2.1 110 13.2
2009-04-06 08:39:06 51°13.068 2°50.804 148.7 2.2 115 13.2
2009-04-06 08:39:11 51°13.066 2°50.808 154.3 2.2 123 13.1
2009-04-06 08:39:16 51°13.064 2°50.812 159.6 2.2 129 13.1
2009-04-06 08:39:21 51°13.062 2°50.816 164.2 2.1 132 13.1
2009-04-06 08:39:26 51°13.06 2°50.818 171 1.7 137 13.1
2009-04-06 08:39:31 51°13.059 2°50.821 175.8 1.7 137 13.1
2009-04-06 08:39:35 51°13.057 2°50.823 180.1 1.5 144 13.1
2009-04-06 08:39:41 51°13.055 2°50.825 183.5 1.4 149 13.1
2009-04-06 08:39:46 51°13.053 2°50.827 188.8 1.3 155 13.1
2009-04-06 08:39:51 51°13.052 2°50.828 192.4 1.3 162 13.1
2009-04-06 08:39:55 51°13.05 2°50.828 197.9 1.1 170 13.1
2009-04-06 08:40:01 51°13.049 2°50.828 202.6 1.1 174 13.1
2009-04-06 08:40:06 51°13.048 2°50.828 207.2 1 189 13.1
2009-04-06 08:40:11 51°13.046 2°50.827 210.8 0.9 189 13.1
2009-04-06 08:40:16 51°13.045 2°50.827 215.6 0.7 203 13.1
2009-04-06 08:40:21 51°13.044 2°50.827 220.3 0.5 201 13.1
2009-04-06 08:40:26 51°13.044 2°50.826 223.4 0.4 223 13.1
2009-04-06 08:40:31 51°13.044 2°50.826 225.8 0.3 212 13.1
2009-04-06 08:40:36 51°13.043 2°50.825 227.9 0.3 242 13.1
2009-04-06 08:40:41 51°13.043 2°50.825 229.4 0.2 233 13.1
2009-04-06 08:40:46 51°13.043 2°50.825 231.3 0.3 291 13.1
2009-04-06 08:40:51 51°13.043 2°50.824 232.4 0.1 262 13.1
2009-04-06 08:40:56 51°13.043 2°50.824 234.1 0.3 309 13.1
2009-04-06 08:41:01 51°13.044 2°50.823 235.2 0.1 315 13.1
2009-04-06 08:41:07 51°13.044 2°50.823 236.7 0.3 327 13.1
2009-04-06 08:41:11 51°13.044 2°50.823 237.5 0.2 332 13.1
2009-04-06 08:41:16 51°13.045 2°50.822 238.7 0.4 331 13.1
2009-04-06 08:41:21 51°13.045 2°50.822 239.6 0.3 339 13.1
2009-04-06 08:41:26 51°13.046 2°50.822 240.3 0.5 342 13.1
2009-04-06 08:41:31 51°13.046 2°50.822 241.1 0.3 350 13.1
2009-04-06 08:41:35 51°13.047 2°50.822 241.9 0.5 346 13.1
2009-04-06 08:41:41 51°13.048 2°50.821 242.4 0.4 350 13.2
2009-04-06 08:41:46 51°13.048 2°50.821 243.1 0.5 349 13.1
2009-04-06 08:41:51 51°13.049 2°50.821 243.5 0.4 356 13.1
2009-04-06 08:41:55 51°13.05 2°50.821 244 0.6 355 13.1
2009-04-06 08:42:01 51°13.05 2°50.821 244.3 0.5 2 13.1
2009-04-06 08:42:06 51°13.051 2°50.821 244.7 0.6 358 13.1
2009-04-06 08:42:11 51°13.052 2°50.821 245 0.5 1 13.1
2009-04-06 08:42:16 51°13.053 2°50.822 245.6 0.6 -999 13.1
2009-04-06 08:42:21 51°13.054 2°50.822 246.1 0.6 6 13.1
2009-04-06 08:42:26 51°13.054 2°50.822 246.6 0.6 4 13.2
2009-04-06 08:42:31 51°13.055 2°50.822 247 0.7 2 13.2
2009-04-06 08:42:36 51°13.056 2°50.822 247.4 0.6 7 13.2
2009-04-06 08:42:41 51°13.057 2°50.823 247.8 0.7 6 13.2
2009-04-06 08:42:46 51°13.058 2°50.823 248.1 0.6 10 13.1
2009-04-06 08:42:51 51°13.059 2°50.823 248.1 0.7 10 13.1
2009-04-06 08:42:56 51°13.06 2°50.823 248.3 0.7 11 13.2
2009-04-06 08:43:01 51°13.061 2°50.824 248.3 0.7 13 13.1
2009-04-06 08:43:07 51°13.062 2°50.824 248.3 0.7 13 13.1
2009-04-06 08:43:11 51°13.062 2°50.825 248.3 0.7 13 13.2
2009-04-06 08:43:16 51°13.064 2°50.825 248.4 0.7 13 13.2
2009-04-06 08:43:21 51°13.065 2°50.825 248.6 0.8 13 13.1
2009-04-06 08:43:26 51°13.066 2°50.826 248.6 0.7 17 13.2
2009-04-06 08:43:31 51°13.067 2°50.826 248.8 0.8 13 13.2
2009-04-06 08:43:35 51°13.067 2°50.827 249 0.7 19 13.2
2009-04-06 08:43:41 51°13.069 2°50.827 249.1 0.8 17 13.2
2009-04-06 08:43:46 51°13.07 2°50.828 249.1 0.8 22 13.2
2009-04-06 08:43:51 51°13.071 2°50.828 249.4 0.8 17 13.2
2009-04-06 08:43:55 51°13.072 2°50.828 249.6 0.8 23 13.2
2009-04-06 08:44:01 51°13.073 2°50.829 249.6 0.9 17 13.2
2009-04-06 08:44:06 51°13.074 2°50.83 249.8 0.8 22 13.2
2009-04-06 08:44:11 51°13.075 2°50.831 249.9 0.8 24 13.2
2009-04-06 08:44:16 51°13.076 2°50.831 250.1 0.9 19 13.2
2009-04-06 08:44:21 51°13.077 2°50.832 250.3 0.8 25 13.2
2009-04-06 08:44:26 51°13.079 2°50.833 250.3 0.9 21 13.2
2009-04-06 08:44:31 51°13.08 2°50.834 250.5 0.9 22 13.2
2009-04-06 08:44:36 51°13.081 2°50.834 250.6 0.9 25 13.2
2009-04-06 08:44:41 51°13.082 2°50.835 250.7 0.9 21 13.2
2009-04-06 08:44:46 51°13.083 2°50.836 250.9 0.9 23 13.2
2009-04-06 08:44:51 51°13.084 2°50.837 251.1 0.9 25 13.2
2009-04-06 08:44:56 51°13.085 2°50.838 251.2 0.9 25 13.3
2009-04-06 08:45:01 51°13.086 2°50.839 251.2 0.9 27 13.2
2009-04-06 08:45:07 51°13.088 2°50.84 251.2 1 24 13.2
2009-04-06 08:45:11 51°13.089 2°50.841 251.3 0.9 28 13.3
2009-04-06 08:45:16 51°13.09 2°50.841 251.4 1 26 13.3
2009-04-06 08:45:21 51°13.092 2°50.842 251.5 0.9 28 13.3
2009-04-06 08:45:26 51°13.093 2°50.843 251.5 1 24 13.3
2009-04-06 08:45:31 51°13.094 2°50.844 251.6 0.9 31 13.3
2009-04-06 08:45:35 51°13.095 2°50.845 251.6 1 24 13.3
2009-04-06 08:45:41 51°13.096 2°50.846 251.6 1 29 13.3
2009-04-06 08:45:46 51°13.098 2°50.847 251.6 1 28 13.2
2009-04-06 08:45:51 51°13.098 2°50.848 251.6 1 27 13.3
2009-04-06 08:45:55 51°13.1 2°50.849 251.6 0.9 32 13.3
2009-04-06 08:46:01 51°13.101 2°50.85 251.6 1 26 13.3
2009-04-06 08:46:06 51°13.102 2°50.852 251.6 1 29 13.3
2009-04-06 08:46:11 51°13.103 2°50.853 251.6 1 29 13.3
2009-04-06 08:46:16 51°13.105 2°50.854 251.6 1 28 13.4
2009-04-06 08:46:21 51°13.106 2°50.855 251.5 1 29 13.3
2009-04-06 08:46:26 51°13.107 2°50.856 251.4 1 31 13.3
2009-04-06 08:46:31 51°13.108 2°50.857 251.4 1 30 13.3
2009-04-06 08:46:36 51°13.109 2°50.859 251.4 1 30 13.3
2009-04-06 08:46:41 51°13.111 2°50.859 251.4 1 32 13.3
2009-04-06 08:46:46 51°13.112 2°50.861 251.2 1.1 27 13.4
2009-04-06 08:46:51 51°13.114 2°50.862 251.3 1 32 13.3
2009-04-06 08:46:56 51°13.115 2°50.862 251.2 1.1 27 13.3
2009-04-06 08:47:01 51°13.116 2°50.864 251.2 1 33 13.4
2009-04-06 08:47:06 51°13.118 2°50.865 251.2 1.1 28 13.4
2009-04-06 08:47:11 51°13.119 2°50.866 251.2 1 33 13.4
2009-04-06 08:47:16 51°13.12 2°50.867 251.2 1.1 29 13.4
2009-04-06 08:47:21 51°13.121 2°50.869 251.2 1.1 33 13.4
2009-04-06 08:47:26 51°13.122 2°50.87 251.2 1.1 27 13.4
2009-04-06 08:47:31 51°13.124 2°50.871 251.2 1 35 13.4
2009-04-06 08:47:35 51°13.125 2°50.872 251.2 1.1 29 13.4
2009-04-06 08:47:41 51°13.126 2°50.874 251.2 1.1 34 13.4
2009-04-06 08:47:46 51°13.128 2°50.875 251.2 1.1 31 13.4
2009-04-06 08:47:51 51°13.129 2°50.876 251.2 1.1 33 13.5
2009-04-06 08:47:55 51°13.13 2°50.877 251.2 1.1 33 13.4
2009-04-06 08:48:01 51°13.132 2°50.879 251.2 1.1 33 13.4
2009-04-06 08:48:06 51°13.133 2°50.88 251.1 1.1 31 13.5
2009-04-06 08:48:11 51°13.134 2°50.881 251.1 1.1 34 13.5
2009-04-06 08:48:16 51°13.136 2°50.883 251.1 1.1 31 13.5
2009-04-06 08:48:21 51°13.137 2°50.884 251 1.1 35 13.5
2009-04-06 08:48:26 51°13.138 2°50.886 250.9 1.2 31 13.5
2009-04-06 08:48:31 51°13.139 2°50.887 250.9 1.1 35 13.5
2009-04-06 08:48:36 51°13.141 2°50.889 250.8 1.2 30 13.5
2009-04-06 08:48:41 51°13.142 2°50.89 250.6 1.1 36 13.6
2009-04-06 08:48:46 51°13.144 2°50.891 250.6 1.2 30 13.5
2009-04-06 08:48:51 51°13.145 2°50.892 250.6 1.1 36 13.6
2009-04-06 08:48:56 51°13.147 2°50.894 250.5 1.2 30 13.5
2009-04-06 08:49:01 51°13.148 2°50.895 250.5 1.1 36 13.5
2009-04-06 08:49:06 51°13.149 2°50.897 250.5 1.2 31 13.5
2009-04-06 08:49:11 51°13.151 2°50.898 250.5 1.2 35 13.5
2009-04-06 08:49:16 51°13.152 2°50.9 250.7 1.2 34 13.5
2009-04-06 08:49:21 51°13.153 2°50.901 250.7 1.2 34 13.6
2009-04-06 08:49:26 51°13.155 2°50.903 250.7 1.2 36 13.6
2009-04-06 08:49:31 51°13.156 2°50.904 250.8 1.2 33 13.6
2009-04-06 08:49:35 51°13.157 2°50.906 250.8 1.1 40 13.6
2009-04-06 08:49:41 51°13.158 2°50.907 250.6 1.2 35 13.6
2009-04-06 08:49:46 51°13.16 2°50.909 250.4 1.1 36 13.6
2009-04-06 08:49:51 51°13.161 2°50.91 250.2 1.2 37 13.6
2009-04-06 08:49:55 51°13.162 2°50.911 249.8 1.1 39 13.6
2009-04-06 08:50:01 51°13.163 2°50.913 249.3 1 40 13.6
2009-04-06 08:50:06 51°13.164 2°50.915 248.4 0.8 45 13.6
2009-04-06 08:50:11 51°13.164 2°50.916 246.9 0.5 57 13.6
2009-04-06 08:50:16 51°13.164 2°50.917 244 0.3 72 13.6
2009-04-06 08:50:21 51°13.164 2°50.917 240.1 0.2 106 13.6
2009-04-06 08:50:27 51°13.164 2°50.918 236.1 0.2 141 13.6
2009-04-06 08:50:31 51°13.163 2°50.918 232.8 0.3 156 13.6
2009-04-06 08:50:36 51°13.163 2°50.918 230.2 0.2 160 13.6
2009-04-06 08:50:41 51°13.163 2°50.918 228.4 0.3 160 13.6
2009-04-06 08:50:46 51°13.163 2°50.918 227 0.3 294 13.6
2009-04-06 08:50:51 51°13.163 2°50.918 226.1 0.5 149 13.6
2009-04-06 08:50:56 51°13.163 2°50.918 225.5 0.2 286 13.6
2009-04-06 08:51:01 51°13.162 2°50.918 225.4 0.3 150 13.6
2009-04-06 08:51:06 51°13.162 2°50.917 225.4 0.1 283 13.6
2009-04-06 08:51:11 51°13.162 2°50.917 225.6 0.2 149 13.6
2009-04-06 08:51:16 51°13.162 2°50.917 225.9 0.1 296 13.6
2009-04-06 08:51:21 51°13.162 2°50.917 226.4 0.1 147 13.6
2009-04-06 08:51:26 51°13.162 2°50.917 227.2 0.1 317 13.6
2009-04-06 08:51:31 51°13.162 2°50.917 227.8 0.1 333 13.6
2009-04-06 08:51:35 51°13.162 2°50.917 228.5 -999 -999 13.6
2009-04-06 08:51:41 51°13.162 2°50.917 229.2 0.1 336 13.6
2009-04-06 08:51:46 51°13.162 2°50.917 229.8 0.1 349 13.6
2009-04-06 08:51:51 51°13.163 2°50.917 230.4 0.2 333 13.6
2009-04-06 08:51:56 51°13.163 2°50.917 231 0.1 26 13.6
2009-04-06 08:52:01 51°13.163 2°50.917 231.6 0.1 338 13.6
2009-04-06 08:52:06 51°13.163 2°50.917 232 0.1 333 13.6
2009-04-06 08:52:11 51°13.163 2°50.916 232.3 0.2 325 13.6
2009-04-06 08:52:16 51°13.163 2°50.916 232.8 0.1 319 13.6
2009-04-06 08:52:21 51°13.163 2°50.916 233 0.2 318 13.6
2009-04-06 08:52:26 51°13.164 2°50.916 233.3 -999 265 13.6
2009-04-06 08:52:31 51°13.164 2°50.916 233.4 0.2 309 13.6
2009-04-06 08:52:36 51°13.164 2°50.915 233.4 0.1 258 13.6
2009-04-06 08:52:41 51°13.164 2°50.915 233.4 0.2 305 13.6
2009-04-06 08:52:46 51°13.164 2°50.914 233.3 0.1 255 13.6
2009-04-06 08:52:51 51°13.164 2°50.914 233.1 0.2 298 13.6
2009-04-06 08:52:56 51°13.164 2°50.914 233.1 0.1 266 13.6
2009-04-06 08:53:01 51°13.164 2°50.914 233 0.2 301 13.6
2009-04-06 08:53:06 51°13.165 2°50.913 232.7 0.1 273 13.6
2009-04-06 08:53:11 51°13.165 2°50.912 232.7 0.2 301 13.6
2009-04-06 08:53:16 51°13.165 2°50.912 232.5 0.1 293 13.6
2009-04-06 08:53:21 51°13.165 2°50.912 232.5 0.2 308 13.7
2009-04-06 08:53:26 51°13.165 2°50.912 232.3 0.1 292 13.7
2009-04-06 08:53:31 51°13.165 2°50.912 232.3 0.2 317 13.7
2009-04-06 08:53:36 51°13.165 2°50.911 232.3 0.1 321 13.6
2009-04-06 08:53:41 51°13.165 2°50.911 232.2 0.1 318 13.6
2009-04-06 08:53:46 51°13.165 2°50.912 232 0.1 321 13.7
2009-04-06 08:53:51 51°13.165 2°50.911 231.8 0.1 315 13.6
2009-04-06 08:53:56 51°13.165 2°50.911 231.6 0.1 315 13.6
2009-04-06 08:54:01 51°13.165 2°50.911 231.3 0.1 294 13.7
2009-04-06 08:54:06 51°13.165 2°50.911 231 0.1 313 13.7
2009-04-06 08:54:11 51°13.165 2°50.911 230.6 -999 154 13.6
2009-04-06 08:54:16 51°13.165 2°50.911 230 0.1 290 13.6
2009-04-06 08:54:21 51°13.165 2°50.911 229.4 -999 316 13.6
2009-04-06 08:54:26 51°13.165 2°50.911 229.2 -999 149 13.6
2009-04-06 08:54:31 51°13.165 2°50.91 228.8 -999 311 13.7
2009-04-06 08:54:36 51°13.165 2°50.911 228.5 0.1 141 13.7
2009-04-06 08:54:41 51°13.165 2°50.911 228.3 -999 329 13.7
2009-04-06 08:54:46 51°13.165 2°50.911 228 0.1 142 13.7
2009-04-06 08:54:51 51°13.165 2°50.911 227.9 -999 347 13.7
2009-04-06 08:54:56 51°13.165 2°50.911 227.7 0.1 135 13.7
2009-04-06 08:55:01 51°13.165 2°50.911 227.5 0.1 336 13.7
2009-04-06 08:55:06 51°13.165 2°50.911 227.3 0.1 116 13.7
2009-04-06 08:55:11 51°13.165 2°50.91 227.3 -999 86 13.7
2009-04-06 08:55:16 51°13.165 2°50.911 227.1 0.1 116 13.7
2009-04-06 08:55:21 51°13.165 2°50.911 227 -999 46 13.7
2009-04-06 08:55:26 51°13.165 2°50.911 226.9 0.1 110 13.7
2009-04-06 08:55:31 51°13.165 2°50.911 226.8 0.1 98 13.7
2009-04-06 08:55:36 51°13.165 2°50.911 226.6 0.1 105 13.6
2009-04-06 08:55:41 51°13.165 2°50.911 226.5 0.1 97 13.7
2009-04-06 08:55:46 51°13.165 2°50.911 226.5 0.1 114 13.7
2009-04-06 08:55:51 51°13.165 2°50.911 226.3 0.1 113 13.7
2009-04-06 08:55:56 51°13.165 2°50.912 226.3 0.1 109 13.7
2009-04-06 08:56:01 51°13.165 2°50.912 226.3 0.1 120 13.7
2009-04-06 08:56:06 51°13.164 2°50.912 226.2 0.1 124 13.7
2009-04-06 08:56:11 51°13.164 2°50.913 226 -999 108 13.7
2009-04-06 08:56:16 51°13.164 2°50.913 226.1 0.2 120 13.7
2009-04-06 08:56:21 51°13.164 2°50.913 226 0.1 125 13.7
2009-04-06 08:56:26 51°13.164 2°50.913 225.9 -999 120 13.7
2009-04-06 08:56:31 51°13.164 2°50.913 226 0.1 131 13.7
2009-04-06 08:56:36 51°13.164 2°50.913 226.1 -999 150 13.6
2009-04-06 08:56:41 51°13.164 2°50.914 226.1 0.1 138 13.7
2009-04-06 08:56:46 51°13.164 2°50.914 226.3 -999 134 13.7
2009-04-06 08:56:51 51°13.164 2°50.914 226.5 0.1 139 13.7
2009-04-06 08:56:56 51°13.164 2°50.914 226.5 -999 207 13.7
2009-04-06 08:57:01 51°13.163 2°50.915 226.6 0.1 134 13.7
2009-04-06 08:57:06 51°13.163 2°50.915 226.8 0.1 130 13.7
2009-04-06 08:57:11 51°13.163 2°50.915 227.1 0.1 140 13.7
2009-04-06 08:57:16 51°13.163 2°50.915 227.2 -999 243 13.7
2009-04-06 08:57:21 51°13.163 2°50.915 227.3 0.1 146 13.7
2009-04-06 08:57:26 51°13.163 2°50.915 227.4 0.1 152 13.7
2009-04-06 08:57:31 51°13.163 2°50.915 227.8 0.1 149 13.6
2009-04-06 08:57:36 51°13.163 2°50.916 227.9 -999 145 13.7
2009-04-06 08:57:41 51°13.163 2°50.915 228.1 0.2 141 13.7
2009-04-06 08:57:46 51°13.163 2°50.915 228.2 0.1 328 13.7
2009-04-06 08:57:51 51°13.163 2°50.915 228.5 0.1 138 13.7
2009-04-06 08:57:56 51°13.164 2°50.915 228.8 0.1 326 13.7
2009-04-06 08:58:01 51°13.164 2°50.915 229 0.2 138 13.7
2009-04-06 08:58:06 51°13.164 2°50.915 229.2 0.1 335 13.7
2009-04-06 08:58:11 51°13.163 2°50.915 229.4 0.2 132 13.7
2009-04-06 08:58:16 51°13.163 2°50.915 229.6 0.1 330 13.7
2009-04-06 08:58:21 51°13.163 2°50.915 229.8 0.2 139 13.7
2009-04-06 08:58:26 51°13.163 2°50.915 229.9 0.1 341 13.7
2009-04-06 08:58:31 51°13.163 2°50.915 230 0.1 125 13.7
2009-04-06 08:58:36 51°13.164 2°50.915 230.1 0.1 346 13.7
2009-04-06 08:58:41 51°13.163 2°50.915 230.2 0.1 128 13.7
2009-04-06 08:58:46 51°13.163 2°50.915 230.2 0.1 340 13.7
2009-04-06 08:58:51 51°13.164 2°50.915 230.2 0.1 132 13.7
2009-04-06 08:58:56 51°13.164 2°50.915 230.2 -999 87 13.7
2009-04-06 08:59:01 51°13.163 2°50.915 230.3 -999 149 13.7
2009-04-06 08:59:06 51°13.163 2°50.916 230.2 0.1 322 13.7
2009-04-06 08:59:11 51°13.163 2°50.916 230.1 0.1 144 13.7
2009-04-06 08:59:16 51°13.163 2°50.915 230 -999 281 13.7
2009-04-06 08:59:21 51°13.163 2°50.916 229.7 0.3 162 13.7
2009-04-06 08:59:26 51°13.163 2°50.916 229.5 -999 227 13.7
2009-04-06 08:59:31 51°13.163 2°50.916 229.5 -999 152 13.7
2009-04-06 08:59:36 51°13.163 2°50.915 229.4 -999 155 13.7
2009-04-06 08:59:41 51°13.163 2°50.915 229.3 -999 198 13.7
2009-04-06 08:59:46 51°13.163 2°50.915 229.2 0.1 159 13.7
2009-04-06 08:59:51 51°13.163 2°50.915 229.2 -999 234 13.7
2009-04-06 08:59:56 51°13.163 2°50.915 229.2 0.1 161 13.7
2009-04-06 09:00:01 51°13.163 2°50.915 229.2 -999 247 13.7
2009-04-06 09:00:06 51°13.163 2°50.915 229.1 -999 172 13.7
2009-04-06 09:00:11 51°13.163 2°50.916 229.1 -999 217 13.7
2009-04-06 09:00:16 51°13.163 2°50.915 229.1 -999 315 13.7
2009-04-06 09:00:21 51°13.163 2°50.915 229.1 -999 159 13.7
2009-04-06 09:00:26 51°13.163 2°50.915 229.2 0.1 140 13.7
2009-04-06 09:00:31 51°13.163 2°50.916 229.3 0.1 321 13.7
2009-04-06 09:00:36 51°13.163 2°50.916 229.5 -999 163 13.7
2009-04-06 09:00:41 51°13.163 2°50.916 229.5 0.1 321 13.7
2009-04-06 09:00:46 51°13.163 2°50.916 229.8 0.1 144 13.7
2009-04-06 09:00:51 51°13.163 2°50.916 229.9 0.1 327 13.7
2009-04-06 09:00:56 51°13.163 2°50.916 230.1 -999 100 13.7
2009-04-06 09:01:01 51°13.163 2°50.916 230.2 0.1 335 13.7
2009-04-06 09:01:06 51°13.163 2°50.916 230.3 -999 303 13.7
2009-04-06 09:01:11 51°13.163 2°50.916 230.3 -999 260 13.7
2009-04-06 09:01:16 51°13.162 2°50.916 230.4 0.1 298 13.7
2009-04-06 09:01:21 51°13.162 2°50.917 230.6 0.1 293 13.7
2009-04-06 09:01:26 51°13.163 2°50.916 230.6 0.1 302 13.7
2009-04-06 09:01:31 51°13.163 2°50.916 230.7 0.1 301 13.7
2009-04-06 09:01:36 51°13.163 2°50.915 230.8 0.1 291 13.7
2009-04-06 09:01:41 51°13.163 2°50.915 230.8 0.1 298 13.7
2009-04-06 09:01:46 51°13.163 2°50.915 230.9 0.1 200 13.7
2009-04-06 09:01:51 51°13.163 2°50.915 230.9 0.1 295 13.7
2009-04-06 09:01:56 51°13.163 2°50.915 230.9 0.1 282 13.7
2009-04-06 09:02:01 51°13.163 2°50.915 231 0.1 301 13.7
2009-04-06 09:02:06 51°13.163 2°50.915 231 -999 249 13.7
2009-04-06 09:02:11 51°13.163 2°50.914 231.2 0.1 292 13.7
2009-04-06 09:02:16 51°13.163 2°50.914 231.3 -999 262 13.7
2009-04-06 09:02:21 51°13.163 2°50.914 231.3 0.1 314 13.7
2009-04-06 09:02:26 51°13.163 2°50.914 231.4 0.1 313 13.7
2009-04-06 09:02:31 51°13.164 2°50.914 231.5 0.1 313 13.7
2009-04-06 09:02:36 51°13.164 2°50.914 231.5 -999 325 13.7
2009-04-06 09:02:41 51°13.164 2°50.913 231.6 0.1 331 13.7
2009-04-06 09:02:46 51°13.164 2°50.913 231.5 -999 337 13.7
2009-04-06 09:02:51 51°13.164 2°50.913 231.5 0.1 324 13.7
2009-04-06 09:02:56 51°13.164 2°50.914 231.5 -999 55 13.7
2009-04-06 09:03:01 51°13.164 2°50.914 231.4 -999 -999 13.7
2009-04-06 09:03:06 51°13.164 2°50.913 231.1 -999 344 13.7
2009-04-06 09:03:11 51°13.164 2°50.913 231 0.1 324 13.8
2009-04-06 09:03:16 51°13.164 2°50.913 230.9 -999 63 13.7
2009-04-06 09:03:21 51°13.164 2°50.913 230.7 -999 93 13.7
2009-04-06 09:03:26 51°13.164 2°50.913 230.4 -999 323 13.7
2009-04-06 09:03:31 51°13.164 2°50.914 230.3 0.1 308 13.7
2009-04-06 09:03:36 51°13.164 2°50.914 230.2 -999 326 13.7
2009-04-06 09:03:41 51°13.164 2°50.913 230 -999 343 13.7
2009-04-06 09:03:46 51°13.164 2°50.913 229.9 0.1 350 13.7
2009-04-06 09:03:51 51°13.165 2°50.913 229.6 -999 158 13.7
2009-04-06 09:03:56 51°13.165 2°50.913 229.5 -999 87 13.8
2009-04-06 09:04:01 51°13.165 2°50.913 229.4 -999 26 13.7
2009-04-06 09:04:06 51°13.164 2°50.914 229.4 0.2 325 13.7
2009-04-06 09:04:11 51°13.164 2°50.914 229.4 0.1 139 13.7
2009-04-06 09:04:16 51°13.164 2°50.915 229.3 0.1 323 13.7
2009-04-06 09:04:21 51°13.164 2°50.915 229.3 0.1 131 13.7
2009-04-06 09:04:26 51°13.163 2°50.915 229.4 0.1 321 13.8
2009-04-06 09:04:31 51°13.164 2°50.915 229.4 0.1 140 13.7
2009-04-06 09:04:36 51°13.164 2°50.914 229.4 0.1 316 13.7
2009-04-06 09:04:41 51°13.164 2°50.915 229.4 -999 153 13.7
2009-04-06 09:04:46 51°13.164 2°50.914 229.4 -999 270 13.7
2009-04-06 09:04:51 51°13.164 2°50.915 229.4 0.1 144 13.7
2009-04-06 09:04:56 51°13.164 2°50.914 229.4 -999 259 13.7
2009-04-06 09:05:01 51°13.164 2°50.915 229.4 -999 176 13.7
2009-04-06 09:05:06 51°13.164 2°50.915 229.4 -999 252 13.7
2009-04-06 09:05:11 51°13.163 2°50.915 229.4 -999 119 13.8
2009-04-06 09:05:16 51°13.163 2°50.915 229.4 -999 348 13.7
2009-04-06 09:05:21 51°13.163 2°50.916 229.4 0.1 133 13.7
2009-04-06 09:05:26 51°13.163 2°50.916 229.4 -999 150 13.7
2009-04-06 09:05:31 51°13.163 2°50.916 229.4 -999 218 13.7
2009-04-06 09:05:36 51°13.163 2°50.916 229.5 -999 108 13.8
2009-04-06 09:05:41 51°13.163 2°50.916 229.4 -999 105 13.7
2009-04-06 09:05:46 51°13.163 2°50.916 229.4 -999 129 13.7
2009-04-06 09:05:51 51°13.163 2°50.915 229.4 -999 160 13.7
2009-04-06 09:05:56 51°13.164 2°50.915 229.5 -999 344 13.8
2009-04-06 09:06:01 51°13.164 2°50.915 229.5 -999 127 13.8
2009-04-06 09:06:06 51°13.164 2°50.915 229.5 -999 134 13.8
2009-04-06 09:06:11 51°13.164 2°50.915 229.5 -999 139 13.7
2009-04-06 09:06:16 51°13.164 2°50.915 229.6 -999 122 13.7
2009-04-06 09:06:21 51°13.163 2°50.916 229.6 -999 126 13.8
2009-04-06 09:06:26 51°13.163 2°50.916 229.6 -999 99 13.7
2009-04-06 09:06:31 51°13.164 2°50.916 229.5 0.1 119 13.7
2009-04-06 09:06:36 51°13.163 2°50.916 229.4 -999 102 13.7
2009-04-06 09:06:41 51°13.164 2°50.916 229.4 0.1 130 13.7
2009-04-06 09:06:46 51°13.163 2°50.916 229.4 -999 133 13.7
2009-04-06 09:06:51 51°13.163 2°50.916 229.4 -999 135 13.8
2009-04-06 09:06:56 51°13.163 2°50.916 229.4 -999 168 13.7
2009-04-06 09:07:01 51°13.163 2°50.916 229.4 -999 254 13.8
2009-04-06 09:07:06 51°13.163 2°50.916 229.5 -999 113 13.8
2009-04-06 09:07:11 51°13.163 2°50.916 229.5 0.1 128 13.7
2009-04-06 09:07:16 51°13.163 2°50.916 229.5 0.1 120 13.7
2009-04-06 09:07:21 51°13.163 2°50.916 229.6 -999 150 13.7
2009-04-06 09:07:26 51°13.163 2°50.916 229.7 -999 140 13.7
2009-04-06 09:07:31 51°13.163 2°50.915 229.9 -999 137 13.7
2009-04-06 09:07:36 51°13.163 2°50.916 230 -999 122 13.7
2009-04-06 09:07:41 51°13.163 2°50.916 230 0.1 124 13.8
2009-04-06 09:07:46 51°13.163 2°50.916 230.2 -999 117 13.7
2009-04-06 09:07:51 51°13.163 2°50.916 230.2 0.1 146 13.8
2009-04-06 09:07:56 51°13.163 2°50.916 230.4 -999 359 13.7
2009-04-06 09:08:01 51°13.164 2°50.915 230.4 -999 144 13.7
2009-04-06 09:08:06 51°13.164 2°50.915 230.5 -999 121 13.7
2009-04-06 09:08:11 51°13.163 2°50.916 230.6 -999 27 13.7
2009-04-06 09:08:16 51°13.163 2°50.916 230.8 -999 113 13.7
2009-04-06 09:08:21 51°13.163 2°50.917 230.8 -999 93 13.8
2009-04-06 09:08:26 51°13.162 2°50.917 230.9 -999 255 13.8
2009-04-06 09:08:31 51°13.162 2°50.917 231 0.1 129 13.7
2009-04-06 09:08:36 51°13.163 2°50.917 231 -999 351 13.8
2009-04-06 09:08:41 51°13.162 2°50.917 231.1 -999 327 13.8
2009-04-06 09:08:46 51°13.162 2°50.917 231.3 -999 26 13.7
2009-04-06 09:08:51 51°13.163 2°50.916 231.4 0.1 125 13.7
2009-04-06 09:08:56 51°13.163 2°50.916 231.4 -999 358 13.8
2009-04-06 09:09:01 51°13.163 2°50.916 231.6 0.1 139 13.7
2009-04-06 09:09:06 51°13.163 2°50.916 231.6 0.1 350 13.8
2009-04-06 09:09:11 51°13.163 2°50.916 231.7 0.1 130 13.7
2009-04-06 09:09:16 51°13.163 2°50.916 231.8 0.1 332 13.7
2009-04-06 09:09:21 51°13.163 2°50.916 232 -999 148 13.7
2009-04-06 09:09:26 51°13.163 2°50.916 232.1 -999 315 13.8
2009-04-06 09:09:31 51°13.163 2°50.916 232.2 -999 318 13.8
2009-04-06 09:09:36 51°13.163 2°50.916 232.3 -999 255 13.8
2009-04-06 09:09:41 51°13.163 2°50.916 232.3 -999 311 13.8
2009-04-06 09:09:46 51°13.163 2°50.916 232.3 -999 310 13.8
2009-04-06 09:09:51 51°13.163 2°50.916 232.3 -999 140 13.7
2009-04-06 09:09:56 51°13.163 2°50.916 232.3 0.1 315 13.7
2009-04-06 09:10:01 51°13.163 2°50.916 232.5 -999 145 13.8
2009-04-06 09:10:06 51°13.163 2°50.916 232.6 0.1 328 13.8
2009-04-06 09:10:11 51°13.163 2°50.916 232.6 -999 4 13.8
2009-04-06 09:10:16 51°13.164 2°50.916 232.6 -999 335 13.8
2009-04-06 09:10:21 51°13.163 2°50.916 232.7 -999 12 13.7
2009-04-06 09:10:26 51°13.163 2°50.916 232.7 -999 10 13.7
2009-04-06 09:10:31 51°13.163 2°50.916 232.7 -999 30 13.7
2009-04-06 09:10:36 51°13.163 2°50.916 232.6 -999 155 13.7
2009-04-06 09:10:41 51°13.164 2°50.916 232.5 -999 83 13.8
2009-04-06 09:10:46 51°13.163 2°50.916 232.4 -999 50 13.7
2009-04-06 09:10:51 51°13.164 2°50.916 232.3 -999 125 13.8
2009-04-06 09:10:56 51°13.163 2°50.916 232.2 -999 153 13.8
2009-04-06 09:11:01 51°13.163 2°50.916 231.9 -999 137 13.8
2009-04-06 09:11:06 51°13.163 2°50.917 231.7 -999 331 13.8
2009-04-06 09:11:11 51°13.163 2°50.917 231.6 0.1 141 13.7
2009-04-06 09:11:16 51°13.163 2°50.916 231.5 -999 133 13.8
2009-04-06 09:11:21 51°13.164 2°50.916 231.4 0.1 121 13.8
2009-04-06 09:11:26 51°13.164 2°50.916 231.3 -999 72 13.8
2009-04-06 09:11:31 51°13.163 2°50.916 231.3 0.1 127 13.8
2009-04-06 09:11:36 51°13.163 2°50.916 231.2 -999 117 13.8
2009-04-06 09:11:41 51°13.164 2°50.916 231.3 -999 78 13.7
2009-04-06 09:11:46 51°13.164 2°50.916 231.4 -999 115 13.8
2009-04-06 09:11:51 51°13.163 2°50.916 231.6 -999 100 13.8
2009-04-06 09:11:56 51°13.163 2°50.916 231.7 -999 116 13.8
2009-04-06 09:12:01 51°13.163 2°50.917 232 -999 336 13.8
2009-04-06 09:12:06 51°13.163 2°50.917 232.2 -999 129 13.8
2009-04-06 09:12:11 51°13.163 2°50.916 232.5 0.1 124 13.8
2009-04-06 09:12:16 51°13.163 2°50.916 232.5 -999 208 13.8
2009-04-06 09:12:21 51°13.163 2°50.916 232.7 -999 118 13.8
2009-04-06 09:12:26 51°13.163 2°50.916 232.9 -999 100 13.8
2009-04-06 09:12:31 51°13.163 2°50.916 233 -999 154 13.8
2009-04-06 09:12:36 51°13.163 2°50.917 233.1 -999 153 13.8
2009-04-06 09:12:41 51°13.162 2°50.917 233.1 -999 265 13.8
2009-04-06 09:12:47 51°13.162 2°50.917 233.1 -999 313 13.8
2009-04-06 09:12:51 51°13.162 2°50.917 233.1 0.1 149 13.8
2009-04-06 09:12:56 51°13.162 2°50.917 233.1 -999 265 13.8
2009-04-06 09:13:01 51°13.162 2°50.917 233.1 -999 276 13.8
2009-04-06 09:13:06 51°13.162 2°50.917 233.1 -999 157 13.7
2009-04-06 09:13:11 51°13.162 2°50.917 233.1 -999 318 13.8
2009-04-06 09:13:15 51°13.162 2°50.917 233.2 -999 276 13.8
2009-04-06 09:13:21 51°13.162 2°50.917 233.3 -999 296 13.7
2009-04-06 09:13:26 51°13.162 2°50.917 233.3 0.1 327 13.8
2009-04-06 09:13:31 51°13.162 2°50.917 233.5 0.1 131 13.8
2009-04-06 09:13:36 51°13.162 2°50.917 233.6 -999 346 13.7
2009-04-06 09:13:41 51°13.162 2°50.917 233.7 0.1 127 13.8
2009-04-06 09:13:46 51°13.162 2°50.917 233.7 -999 347 13.8
2009-04-06 09:13:51 51°13.162 2°50.917 233.4 0.1 137 13.8
2009-04-06 09:13:55 51°13.162 2°50.917 232.8 -999 19 13.8
2009-04-06 09:14:01 51°13.162 2°50.917 232.1 0.1 127 13.8
2009-04-06 09:14:06 51°13.162 2°50.917 231.3 0.1 101 13.8
2009-04-06 09:14:11 51°13.162 2°50.918 230.6 0.1 117 13.8
2009-04-06 09:14:16 51°13.162 2°50.918 229.7 0.1 115 13.8
2009-04-06 09:14:21 51°13.162 2°50.918 228.9 0.1 122 13.8
2009-04-06 09:14:26 51°13.162 2°50.918 228 0.1 99 13.8
2009-04-06 09:14:31 51°13.161 2°50.918 227.3 0.2 116 13.8
2009-04-06 09:14:35 51°13.161 2°50.919 226.6 0.1 104 13.8
2009-04-06 09:14:41 51°13.161 2°50.919 225.9 0.2 117 13.8
2009-04-06 09:14:46 51°13.161 2°50.919 225.5 0.2 118 13.7
2009-04-06 09:14:51 51°13.161 2°50.919 225.1 0.2 119 13.8
2009-04-06 09:14:56 51°13.161 2°50.919 224.5 0.1 119 13.8
2009-04-06 09:15:01 51°13.161 2°50.92 224.2 0.2 126 13.8
2009-04-06 09:15:06 51°13.161 2°50.92 223.8 0.2 131 13.7
2009-04-06 09:15:11 51°13.161 2°50.921 223.6 0.1 134 13.8
2009-04-06 09:15:16 51°13.161 2°50.921 223.3 0.2 127 13.8
2009-04-06 09:15:21 51°13.161 2°50.921 223.1 0.1 138 13.8
2009-04-06 09:15:26 51°13.16 2°50.921 223 0.2 142 13.8
2009-04-06 09:15:31 51°13.16 2°50.921 222.9 0.1 145 13.8
2009-04-06 09:15:36 51°13.16 2°50.922 222.9 0.1 137 13.7
2009-04-06 09:15:41 51°13.16 2°50.922 222.9 0.2 140 13.8
2009-04-06 09:15:46 51°13.16 2°50.922 222.9 0.2 142 13.8
2009-04-06 09:15:51 51°13.159 2°50.922 222.9 0.1 154 13.7
2009-04-06 09:15:56 51°13.159 2°50.922 222.9 0.1 152 13.7
2009-04-06 09:16:01 51°13.159 2°50.922 223 0.1 162 13.7
2009-04-06 09:16:06 51°13.159 2°50.922 223.1 0.2 149 13.7
2009-04-06 09:16:11 51°13.159 2°50.922 223.1 0.1 182 13.8
2009-04-06 09:16:16 51°13.158 2°50.922 223.2 0.2 141 13.7
2009-04-06 09:16:21 51°13.158 2°50.922 223.2 0.1 163 13.7
2009-04-06 09:16:26 51°13.158 2°50.923 223.3 0.2 140 13.7
2009-04-06 09:16:31 51°13.158 2°50.923 223.5 0.1 147 13.7
2009-04-06 09:16:36 51°13.158 2°50.923 223.5 0.1 146 13.7
2009-04-06 09:16:41 51°13.158 2°50.923 223.6 0.2 135 13.7
2009-04-06 09:16:46 51°13.158 2°50.923 223.6 -999 146 13.7
2009-04-06 09:16:51 51°13.157 2°50.923 223.8 0.2 139 13.7
2009-04-06 09:16:56 51°13.157 2°50.923 223.9 -999 145 13.7
2009-04-06 09:17:01 51°13.157 2°50.924 224 0.2 135 13.7
2009-04-06 09:17:06 51°13.157 2°50.924 224.2 -999 241 13.7
2009-04-06 09:17:11 51°13.157 2°50.924 224.3 0.2 141 13.7
2009-04-06 09:17:16 51°13.157 2°50.924 224.4 0.1 159 13.7
2009-04-06 09:17:21 51°13.157 2°50.924 224.6 0.1 143 13.7
2009-04-06 09:17:26 51°13.157 2°50.924 224.8 0.1 136 13.7
2009-04-06 09:17:31 51°13.156 2°50.924 224.8 0.1 138 13.7
2009-04-06 09:17:36 51°13.156 2°50.925 225.1 0.1 144 13.7
2009-04-06 09:17:41 51°13.156 2°50.925 225.1 -999 189 13.7
2009-04-06 09:17:46 51°13.156 2°50.925 225.4 -999 183 13.7
2009-04-06 09:17:51 51°13.156 2°50.925 225.8 0.1 153 13.7
2009-04-06 09:17:56 51°13.156 2°50.925 225.8 -999 161 13.7
2009-04-06 09:18:01 51°13.156 2°50.925 226 -999 185 13.7
2009-04-06 09:18:06 51°13.156 2°50.925 226.3 -999 177 13.7
2009-04-06 09:18:11 51°13.156 2°50.925 226.5 -999 164 13.8
2009-04-06 09:18:16 51°13.156 2°50.924 226.6 -999 237 13.7
2009-04-06 09:18:21 51°13.156 2°50.924 226.7 -999 216 13.7
2009-04-06 09:18:26 51°13.156 2°50.925 226.8 -999 138 13.7
2009-04-06 09:18:31 51°13.156 2°50.925 226.9 -999 321 13.7
2009-04-06 09:18:36 51°13.156 2°50.925 227 0.1 129 13.7
2009-04-06 09:18:41 51°13.156 2°50.925 227.1 0.1 332 13.7
2009-04-06 09:18:46 51°13.156 2°50.925 227.1 0.1 118 13.7
2009-04-06 09:18:51 51°13.156 2°50.925 227.2 -999 34 13.7
2009-04-06 09:18:55 51°13.156 2°50.925 227.3 0.1 117 13.7
2009-04-06 09:19:01 51°13.156 2°50.925 227.3 0.1 117 13.7
2009-04-06 09:19:06 51°13.156 2°50.924 227.4 -999 35 13.7
2009-04-06 09:19:11 51°13.156 2°50.924 227.6 -999 -999 13.7
2009-04-06 09:19:16 51°13.156 2°50.924 227.7 -999 340 13.7
2009-04-06 09:19:21 51°13.156 2°50.924 227.8 -999 318 13.7
2009-04-06 09:19:26 51°13.156 2°50.924 228 -999 194 13.7
2009-04-06 09:19:31 51°13.157 2°50.924 228 -999 219 13.7
2009-04-06 09:19:35 51°13.156 2°50.924 228.1 -999 317 13.7
2009-04-06 09:19:41 51°13.156 2°50.924 228.1 -999 83 13.7
2009-04-06 09:19:46 51°13.156 2°50.924 228.1 -999 345 13.7
2009-04-06 09:19:51 51°13.157 2°50.923 228 -999 63 13.7
2009-04-06 09:19:56 51°13.157 2°50.923 227.9 -999 153 13.7
2009-04-06 09:20:01 51°13.157 2°50.923 227.5 0.1 303 13.7
2009-04-06 09:20:06 51°13.157 2°50.923 227.4 0.1 151 13.7
2009-04-06 09:20:11 51°13.157 2°50.924 227.2 -999 286 13.7
2009-04-06 09:20:15 51°13.156 2°50.924 226.9 0.1 129 13.7
2009-04-06 09:20:21 51°13.156 2°50.924 226.6 -999 97 13.7
2009-04-06 09:20:26 51°13.156 2°50.924 226.3 0.1 118 13.8
2009-04-06 09:20:31 51°13.156 2°50.925 226 -999 328 13.7
2009-04-06 09:20:36 51°13.156 2°50.925 225.8 -999 133 13.7
2009-04-06 09:20:41 51°13.156 2°50.925 225.7 -999 302 13.8
2009-04-06 09:20:46 51°13.156 2°50.925 225.6 0.1 133 13.7
2009-04-06 09:20:51 51°13.156 2°50.925 225.4 -999 309 13.7
2009-04-06 09:20:56 51°13.156 2°50.924 225.1 0.1 142 13.7
2009-04-06 09:21:01 51°13.157 2°50.924 225.1 -999 237 13.7
2009-04-06 09:21:06 51°13.157 2°50.924 224.9 -999 136 13.7
2009-04-06 09:21:11 51°13.157 2°50.924 224.8 0.1 144 13.7
2009-04-06 09:21:16 51°13.157 2°50.924 224.7 -999 196 13.7
2009-04-06 09:21:21 51°13.156 2°50.924 224.7 0.1 132 13.7
2009-04-06 09:21:26 51°13.156 2°50.925 224.5 -999 109 13.7
2009-04-06 09:21:31 51°13.156 2°50.925 224.4 0.1 118 13.7
2009-04-06 09:21:36 51°13.156 2°50.925 224.4 -999 142 13.7
2009-04-06 09:21:41 51°13.156 2°50.925 224.3 -999 324 13.7
2009-04-06 09:21:46 51°13.156 2°50.924 224.3 0.1 123 13.7
2009-04-06 09:21:51 51°13.156 2°50.924 224 0.1 126 13.7
2009-04-06 09:21:56 51°13.156 2°50.924 223.8 -999 127 13.7
2009-04-06 09:22:01 51°13.156 2°50.925 223.6 0.1 126 13.7
2009-04-06 09:22:06 51°13.155 2°50.926 223.6 0.1 124 13.8
2009-04-06 09:22:11 51°13.155 2°50.926 223.5 -999 139 13.7
2009-04-06 09:22:16 51°13.155 2°50.926 223.4 0.1 153 13.7
2009-04-06 09:22:21 51°13.155 2°50.927 223.4 0.1 152 13.7
2009-04-06 09:22:26 51°13.155 2°50.927 223.4 -999 166 13.7
2009-04-06 09:22:31 51°13.155 2°50.926 223.4 0.1 155 13.7
2009-04-06 09:22:36 51°13.155 2°50.926 223.4 0.1 161 13.7
2009-04-06 09:22:41 51°13.155 2°50.926 223.4 0.1 168 13.7
2009-04-06 09:22:46 51°13.155 2°50.925 223.4 0.1 154 13.7
2009-04-06 09:22:51 51°13.156 2°50.925 223.3 0.1 154 13.7
2009-04-06 09:22:56 51°13.156 2°50.925 223.3 0.1 155 13.7
2009-04-06 09:23:01 51°13.156 2°50.924 223.3 0.1 158 13.7
2009-04-06 09:23:06 51°13.157 2°50.923 223.2 -999 216 13.7
2009-04-06 09:23:11 51°13.156 2°50.924 223.3 0.1 154 13.7
2009-04-06 09:23:16 51°13.156 2°50.925 223.3 -999 144 13.7
2009-04-06 09:23:21 51°13.155 2°50.926 223.4 0.1 142 13.7
2009-04-06 09:23:26 51°13.155 2°50.927 223.4 -999 137 13.7
2009-04-06 09:23:31 51°13.154 2°50.927 223.5 0.1 125 13.8
2009-04-06 09:23:36 51°13.154 2°50.927 223.6 -999 199 13.7
2009-04-06 09:23:41 51°13.154 2°50.927 223.6 0.1 126 13.7
2009-04-06 09:23:46 51°13.154 2°50.927 223.8 -999 104 13.7
2009-04-06 09:23:51 51°13.154 2°50.927 223.9 -999 151 13.7
2009-04-06 09:23:56 51°13.154 2°50.927 224.1 -999 189 13.7
2009-04-06 09:24:01 51°13.155 2°50.927 224.2 -999 290 13.7
2009-04-06 09:24:07 51°13.155 2°50.926 224.3 -999 153 13.7
2009-04-06 09:24:11 51°13.155 2°50.926 224.3 -999 197 13.7
2009-04-06 09:24:16 51°13.155 2°50.926 224.3 -999 137 13.7
2009-04-06 09:24:21 51°13.155 2°50.926 224.4 -999 106 13.8
2009-04-06 09:24:26 51°13.155 2°50.927 224.4 -999 117 13.8
2009-04-06 09:24:31 51°13.155 2°50.927 224.4 -999 124 13.7
2009-04-06 09:24:35 51°13.154 2°50.927 224.4 -999 304 13.7
2009-04-06 09:24:41 51°13.154 2°50.927 224.4 -999 139 13.8
2009-04-06 09:24:46 51°13.155 2°50.926 224.5 -999 315 13.7
2009-04-06 09:24:51 51°13.155 2°50.925 224.6 -999 141 13.8
2009-04-06 09:24:56 51°13.155 2°50.926 224.7 -999 316 13.8
2009-04-06 09:25:01 51°13.155 2°50.926 224.9 -999 118 13.8
2009-04-06 09:25:06 51°13.156 2°50.925 225 -999 321 13.8
2009-04-06 09:25:11 51°13.156 2°50.925 225 -999 148 13.8
2009-04-06 09:25:15 51°13.156 2°50.925 225.1 -999 322 13.8
2009-04-06 09:25:21 51°13.155 2°50.926 225.1 0.1 113 13.8
2009-04-06 09:25:26 51°13.155 2°50.926 225.1 -999 45 13.7
2009-04-06 09:25:31 51°13.155 2°50.927 225.2 0.1 132 13.7
2009-04-06 09:25:36 51°13.154 2°50.927 225.2 -999 332 13.7
2009-04-06 09:25:41 51°13.155 2°50.927 225.3 0.1 136 13.7
2009-04-06 09:25:46 51°13.155 2°50.927 225.3 -999 285 13.8
2009-04-06 09:25:51 51°13.155 2°50.927 225.4 -999 264 13.8
2009-04-06 09:25:55 51°13.155 2°50.926 225.5 0.1 128 13.7
2009-04-06 09:26:01 51°13.155 2°50.926 225.4 -999 290 13.7
2009-04-06 09:26:06 51°13.155 2°50.926 225.5 0.1 153 13.8
2009-04-06 09:26:11 51°13.155 2°50.926 225.5 -999 172 13.7
2009-04-06 09:26:16 51°13.155 2°50.926 225.5 0.1 151 13.7
2009-04-06 09:26:21 51°13.155 2°50.926 225.6 -999 159 13.7
2009-04-06 09:26:26 51°13.155 2°50.927 225.7 -999 281 13.8
2009-04-06 09:26:31 51°13.155 2°50.927 225.8 0.1 137 13.8
2009-04-06 09:26:36 51°13.155 2°50.927 225.8 -999 195 13.8
2009-04-06 09:26:41 51°13.155 2°50.926 225.8 0.1 141 13.7
2009-04-06 09:26:46 51°13.155 2°50.927 225.8 -999 226 13.7
2009-04-06 09:26:51 51°13.155 2°50.927 225.8 -999 155 13.8
2009-04-06 09:26:56 51°13.155 2°50.927 225.8 0.1 155 13.8
2009-04-06 09:27:01 51°13.155 2°50.927 225.8 0.1 149 13.7
2009-04-06 09:27:06 51°13.154 2°50.927 225.8 -999 223 13.7
2009-04-06 09:27:11 51°13.154 2°50.927 225.8 -999 131 13.7
2009-04-06 09:27:16 51°13.154 2°50.927 225.8 0.1 139 13.8
2009-04-06 09:27:21 51°13.155 2°50.927 225.8 -999 189 13.7
2009-04-06 09:27:26 51°13.154 2°50.927 225.8 -999 161 13.8
2009-04-06 09:27:31 51°13.154 2°50.927 225.8 -999 151 13.7
2009-04-06 09:27:36 51°13.155 2°50.927 225.8 -999 290 13.7
2009-04-06 09:27:41 51°13.155 2°50.926 225.8 0.1 130 13.8
2009-04-06 09:27:46 51°13.155 2°50.927 225.8 -999 6 13.7
2009-04-06 09:27:51 51°13.155 2°50.927 225.8 -999 297 13.8
2009-04-06 09:27:56 51°13.154 2°50.927 225.9 -999 101 13.7
2009-04-06 09:28:01 51°13.154 2°50.928 226.1 0.1 311 13.8
2009-04-06 09:28:06 51°13.154 2°50.928 226.3 -999 322 13.8
2009-04-06 09:28:11 51°13.154 2°50.928 226.5 0.1 322 13.8
2009-04-06 09:28:16 51°13.154 2°50.928 226.7 0.1 337 13.7
2009-04-06 09:28:21 51°13.154 2°50.928 226.9 0.1 326 13.8
2009-04-06 09:28:26 51°13.155 2°50.928 227.2 -999 29 13.7
2009-04-06 09:28:31 51°13.155 2°50.928 227.2 0.1 334 13.8
2009-04-06 09:28:36 51°13.155 2°50.927 227.3 0.1 354 13.8
2009-04-06 09:28:41 51°13.155 2°50.927 227.4 0.1 354 13.8
2009-04-06 09:28:47 51°13.155 2°50.927 227.5 0.1 15 13.7
2009-04-06 09:28:51 51°13.155 2°50.927 227.5 0.1 342 13.8
2009-04-06 09:28:56 51°13.155 2°50.927 227.8 0.1 -999 13.7
2009-04-06 09:29:01 51°13.155 2°50.927 227.8 0.1 344 13.8
2009-04-06 09:29:07 51°13.156 2°50.927 227.9 0.1 28 13.8
2009-04-06 09:29:11 51°13.156 2°50.927 228 0.1 346 13.8
2009-04-06 09:29:16 51°13.156 2°50.927 228.1 0.1 351 13.8
2009-04-06 09:29:21 51°13.156 2°50.927 228.2 0.1 334 13.8
2009-04-06 09:29:26 51°13.156 2°50.927 228.5 0.1 342 13.7
2009-04-06 09:29:31 51°13.156 2°50.927 228.6 0.1 342 13.8
2009-04-06 09:29:36 51°13.156 2°50.927 228.6 0.1 329 13.8
2009-04-06 09:29:41 51°13.156 2°50.927 228.7 -999 5 13.7
2009-04-06 09:29:46 51°13.156 2°50.926 228.7 0.2 323 13.8
2009-04-06 09:29:51 51°13.156 2°50.926 228.6 0.1 135 13.8
2009-04-06 09:29:56 51°13.157 2°50.926 228.5 0.2 322 13.8
2009-04-06 09:30:01 51°13.156 2°50.926 228.4 0.1 121 13.8
2009-04-06 09:30:06 51°13.157 2°50.926 228.3 0.1 327 13.8
2009-04-06 09:30:11 51°13.157 2°50.926 228.1 0.1 114 13.7
2009-04-06 09:30:16 51°13.157 2°50.926 228 0.1 315 13.7
2009-04-06 09:30:21 51°13.157 2°50.926 227.9 -999 322 13.8
2009-04-06 09:30:26 51°13.157 2°50.926 227.8 -999 342 13.7
2009-04-06 09:30:31 51°13.157 2°50.926 227.7 -999 50 13.8
2009-04-06 09:30:35 51°13.157 2°50.926 227.6 -999 59 13.8
2009-04-06 09:30:41 51°13.157 2°50.926 227.5 0.1 129 13.8
2009-04-06 09:30:46 51°13.157 2°50.926 227.3 0.1 314 13.8
2009-04-06 09:30:51 51°13.157 2°50.926 227.2 0.1 137 13.8
2009-04-06 09:30:56 51°13.157 2°50.926 226.9 0.1 307 13.8
2009-04-06 09:31:01 51°13.157 2°50.926 226.6 0.1 136 13.8
2009-04-06 09:31:06 51°13.157 2°50.926 226.5 0.1 314 13.8
2009-04-06 09:31:11 51°13.157 2°50.926 226.3 0.1 129 13.9
2009-04-06 09:31:15 51°13.157 2°50.926 226.1 -999 143 13.8
2009-04-06 09:31:21 51°13.157 2°50.926 225.9 0.1 324 13.8
2009-04-06 09:31:26 51°13.157 2°50.926 225.8 0.1 127 13.8
2009-04-06 09:31:31 51°13.157 2°50.926 225.7 0.1 321 13.8
2009-04-06 09:31:36 51°13.157 2°50.926 225.6 0.1 122 13.8
2009-04-06 09:31:41 51°13.157 2°50.926 225.5 -999 22 13.8
2009-04-06 09:31:46 51°13.157 2°50.926 225.2 -999 126 13.8
2009-04-06 09:31:51 51°13.157 2°50.926 225.1 -999 77 13.8
2009-04-06 09:31:55 51°13.157 2°50.925 224.9 0.1 128 13.8
2009-04-06 09:32:01 51°13.158 2°50.925 224.7 -999 126 13.8
2009-04-06 09:32:06 51°13.158 2°50.925 224.5 -999 154 13.8
2009-04-06 09:32:11 51°13.157 2°50.925 224.4 -999 250 13.8
2009-04-06 09:32:16 51°13.157 2°50.925 224.4 -999 148 13.8
2009-04-06 09:32:21 51°13.157 2°50.926 224.2 -999 280 13.8
2009-04-06 09:32:26 51°13.157 2°50.926 224.2 -999 152 13.8
2009-04-06 09:32:31 51°13.157 2°50.926 224 -999 305 13.8
2009-04-06 09:32:36 51°13.157 2°50.926 224 -999 114 13.8
2009-04-06 09:32:41 51°13.157 2°50.926 223.9 -999 273 13.8
2009-04-06 09:32:46 51°13.157 2°50.926 223.9 -999 144 13.8
2009-04-06 09:32:51 51°13.157 2°50.926 223.9 -999 140 13.8
2009-04-06 09:32:56 51°13.157 2°50.926 223.9 0.1 324 13.8
2009-04-06 09:33:01 51°13.157 2°50.927 224 -999 274 13.8
2009-04-06 09:33:06 51°13.157 2°50.926 224 -999 66 13.8
2009-04-06 09:33:11 51°13.157 2°50.926 224 -999 41 13.8
2009-04-06 09:33:16 51°13.157 2°50.926 224.1 0.1 342 13.8
2009-04-06 09:33:21 51°13.157 2°50.926 224.2 0.1 123 13.8
2009-04-06 09:33:27 51°13.157 2°50.926 224.1 -999 55 13.8
2009-04-06 09:33:31 51°13.157 2°50.926 224.1 -999 342 13.8
2009-04-06 09:33:36 51°13.157 2°50.925 224 -999 353 13.8
2009-04-06 09:33:41 51°13.157 2°50.926 224 0.1 121 13.8
2009-04-06 09:33:47 51°13.157 2°50.926 223.9 -999 115 13.8
2009-04-06 09:33:51 51°13.157 2°50.926 223.8 -999 302 13.8
2009-04-06 09:33:56 51°13.157 2°50.926 223.8 -999 28 13.8
2009-04-06 09:34:01 51°13.157 2°50.926 223.8 0.1 120 13.8
2009-04-06 09:34:06 51°13.157 2°50.926 223.7 0.1 139 13.8
2009-04-06 09:34:11 51°13.157 2°50.926 223.6 -999 166 13.8
2009-04-06 09:34:16 51°13.156 2°50.926 223.6 -999 139 13.8
2009-04-06 09:34:21 51°13.156 2°50.926 223.6 0.1 141 13.8
2009-04-06 09:34:26 51°13.156 2°50.926 223.6 -999 271 13.7
2009-04-06 09:34:31 51°13.156 2°50.926 223.6 0.1 153 13.8
2009-04-06 09:34:36 51°13.156 2°50.926 223.6 -999 212 13.8
2009-04-06 09:34:41 51°13.156 2°50.926 223.6 0.1 143 13.7
2009-04-06 09:34:46 51°13.156 2°50.926 223.6 -999 236 13.7
2009-04-06 09:34:51 51°13.155 2°50.926 223.6 0.1 162 13.8
2009-04-06 09:34:56 51°13.155 2°50.926 223.7 0.1 154 13.8
2009-04-06 09:35:01 51°13.155 2°50.926 223.8 0.1 155 13.8
2009-04-06 09:35:06 51°13.155 2°50.927 223.8 -999 229 13.8
2009-04-06 09:35:11 51°13.155 2°50.927 223.8 0.1 151 13.8
2009-04-06 09:35:16 51°13.155 2°50.927 224 0.1 130 13.8
2009-04-06 09:35:21 51°13.155 2°50.927 224 -999 121 13.8
2009-04-06 09:35:27 51°13.155 2°50.927 224.2 0.1 301 13.8
2009-04-06 09:35:31 51°13.155 2°50.927 224.3 0.1 132 13.8
2009-04-06 09:35:36 51°13.155 2°50.927 224.4 -999 133 13.8
2009-04-06 09:35:41 51°13.155 2°50.927 224.6 -999 310 13.8
2009-04-06 09:35:47 51°13.155 2°50.927 224.6 0.1 320 13.8
2009-04-06 09:35:51 51°13.155 2°50.927 224.9 0.1 132 13.8
2009-04-06 09:35:56 51°13.155 2°50.927 224.9 0.1 320 13.8
2009-04-06 09:36:01 51°13.155 2°50.927 224.9 0.1 130 13.8
2009-04-06 09:36:06 51°13.155 2°50.927 224.9 0.1 321 13.8
2009-04-06 09:36:11 51°13.155 2°50.927 225 0.1 129 13.8
2009-04-06 09:36:16 51°13.155 2°50.927 225.1 0.1 320 13.8
2009-04-06 09:36:21 51°13.155 2°50.927 225.1 0.1 131 13.8
2009-04-06 09:36:26 51°13.155 2°50.927 225.1 0.1 327 13.8
2009-04-06 09:36:31 51°13.155 2°50.927 225.1 0.1 132 13.8
2009-04-06 09:36:36 51°13.155 2°50.927 225.1 0.1 319 13.8
2009-04-06 09:36:41 51°13.155 2°50.927 225.1 0.1 126 13.8
2009-04-06 09:36:46 51°13.155 2°50.927 225.2 0.1 323 13.7
2009-04-06 09:36:51 51°13.155 2°50.927 225.2 -999 174 13.8
2009-04-06 09:36:55 51°13.155 2°50.927 225.3 -999 309 13.8
2009-04-06 09:37:01 51°13.155 2°50.927 225.3 -999 252 13.8
2009-04-06 09:37:06 51°13.155 2°50.927 225.3 -999 312 13.8
2009-04-06 09:37:11 51°13.155 2°50.927 225.2 -999 326 13.8
2009-04-06 09:37:16 51°13.155 2°50.927 225.1 -999 31 13.8
2009-04-06 09:37:21 51°13.155 2°50.927 225.1 -999 115 13.8
2009-04-06 09:37:26 51°13.155 2°50.927 225.1 0.1 314 13.8
2009-04-06 09:37:31 51°13.155 2°50.927 225.1 -999 136 13.8
2009-04-06 09:37:35 51°13.155 2°50.927 225.1 0.1 317 13.8
2009-04-06 09:37:41 51°13.155 2°50.927 225.1 0.1 123 13.8
2009-04-06 09:37:46 51°13.155 2°50.927 225.1 0.1 325 13.8
2009-04-06 09:37:51 51°13.155 2°50.927 225.1 0.1 123 13.8
2009-04-06 09:37:56 51°13.155 2°50.927 225.1 0.1 328 13.8
2009-04-06 09:38:01 51°13.155 2°50.927 225.2 0.1 139 13.8
2009-04-06 09:38:06 51°13.155 2°50.927 225.2 0.1 317 13.8
2009-04-06 09:38:11 51°13.155 2°50.927 225.1 -999 138 13.8
2009-04-06 09:38:16 51°13.155 2°50.927 225 -999 8 13.8
2009-04-06 09:38:21 51°13.155 2°50.927 224.9 0.1 137 13.8
2009-04-06 09:38:26 51°13.155 2°50.927 224.7 -999 321 13.8
2009-04-06 09:38:31 51°13.155 2°50.927 224.5 0.1 129 13.8
2009-04-06 09:38:36 51°13.155 2°50.927 224.4 -999 261 13.8
2009-04-06 09:38:41 51°13.155 2°50.927 224.4 0.1 135 13.8
2009-04-06 09:38:46 51°13.155 2°50.927 224.2 0.1 303 13.8
2009-04-06 09:38:51 51°13.155 2°50.927 224.2 0.1 141 13.8
2009-04-06 09:38:56 51°13.155 2°50.927 224 -999 310 13.8
2009-04-06 09:39:01 51°13.155 2°50.927 224 0.1 133 13.8
2009-04-06 09:39:06 51°13.155 2°50.927 224 -999 314 13.8
2009-04-06 09:39:11 51°13.155 2°50.927 223.9 0.1 127 13.8
2009-04-06 09:39:16 51°13.155 2°50.927 223.9 -999 330 13.8
2009-04-06 09:39:21 51°13.155 2°50.927 223.9 0.1 124 13.8
2009-04-06 09:39:26 51°13.155 2°50.927 223.9 -999 318 13.8
2009-04-06 09:39:31 51°13.155 2°50.927 223.9 -999 134 13.8
2009-04-06 09:39:36 51°13.155 2°50.927 224 -999 325 13.8
2009-04-06 09:39:41 51°13.155 2°50.927 224.2 -999 353 13.8
2009-04-06 09:39:46 51°13.155 2°50.927 224.4 -999 30 13.8
2009-04-06 09:39:51 51°13.155 2°50.927 224.6 -999 342 13.8
2009-04-06 09:39:56 51°13.155 2°50.927 224.8 -999 339 13.8
2009-04-06 09:40:01 51°13.155 2°50.927 225 0.1 336 13.8
2009-04-06 09:40:06 51°13.155 2°50.927 225 -999 18 13.8
2009-04-06 09:40:11 51°13.155 2°50.927 225.1 -999 -999 13.8
2009-04-06 09:40:16 51°13.155 2°50.927 225.1 -999 328 13.8
2009-04-06 09:40:21 51°13.155 2°50.927 225.1 -999 28 13.8
2009-04-06 09:40:26 51°13.155 2°50.927 225.1 0.1 351 13.8
2009-04-06 09:40:31 51°13.155 2°50.927 225 -999 72 13.8
2009-04-06 09:40:36 51°13.155 2°50.927 224.9 0.1 346 13.8
2009-04-06 09:40:41 51°13.155 2°50.927 224.8 -999 103 13.8
2009-04-06 09:40:46 51°13.155 2°50.927 224.8 0.1 335 13.8
2009-04-06 09:40:51 51°13.155 2°50.927 224.7 0.1 112 13.8
2009-04-06 09:40:56 51°13.155 2°50.927 224.6 0.1 332 13.8
2009-04-06 09:41:01 51°13.155 2°50.927 224.6 0.1 119 13.8
2009-04-06 09:41:06 51°13.155 2°50.927 224.5 0.1 323 13.8
2009-04-06 09:41:11 51°13.155 2°50.927 224.6 -999 123 13.8
2009-04-06 09:41:16 51°13.155 2°50.927 224.6 0.1 322 13.8
2009-04-06 09:41:21 51°13.155 2°50.927 224.6 -999 43 13.8
2009-04-06 09:41:26 51°13.155 2°50.927 224.6 -999 34 13.8
2009-04-06 09:41:31 51°13.155 2°50.927 224.6 0.1 327 13.8
2009-04-06 09:41:36 51°13.155 2°50.927 224.6 -999 134 13.8
2009-04-06 09:41:41 51°13.155 2°50.927 224.7 0.1 304 13.8
2009-04-06 09:41:47 51°13.155 2°50.927 224.7 -999 232 13.8
2009-04-06 09:41:51 51°13.155 2°50.927 224.7 -999 305 13.8
2009-04-06 09:41:56 51°13.155 2°50.927 224.7 -999 334 13.8
2009-04-06 09:42:01 51°13.155 2°50.927 224.8 -999 116 13.8
2009-04-06 09:42:06 51°13.156 2°50.926 224.9 0.1 323 13.8
2009-04-06 09:42:11 51°13.155 2°50.926 225 -999 351 13.8
2009-04-06 09:42:15 51°13.156 2°50.926 225.1 0.1 344 13.8
2009-04-06 09:42:21 51°13.156 2°50.926 225.2 -999 356 13.8
2009-04-06 09:42:26 51°13.156 2°50.926 225.4 -999 11 13.8
2009-04-06 09:42:31 51°13.156 2°50.926 225.5 -999 10 13.8
2009-04-06 09:42:36 51°13.156 2°50.926 225.5 -999 64 13.8
2009-04-06 09:42:41 51°13.156 2°50.926 225.6 0.1 327 13.8
2009-04-06 09:42:46 51°13.156 2°50.926 225.7 -999 36 13.8
2009-04-06 09:42:51 51°13.156 2°50.926 225.7 -999 61 13.8
2009-04-06 09:42:55 51°13.156 2°50.926 225.7 0.1 337 13.8
2009-04-06 09:43:01 51°13.156 2°50.926 225.7 -999 350 13.8
2009-04-06 09:43:06 51°13.156 2°50.926 225.9 0.1 339 13.8
2009-04-06 09:43:11 51°13.156 2°50.926 226 -999 58 13.8
2009-04-06 09:43:16 51°13.156 2°50.926 226 0.1 323 13.8
2009-04-06 09:43:21 51°13.156 2°50.926 226.1 -999 149 13.8
2009-04-06 09:43:26 51°13.157 2°50.926 226.1 0.1 314 13.8
2009-04-06 09:43:31 51°13.156 2°50.926 226 0.1 137 13.8
2009-04-06 09:43:35 51°13.156 2°50.926 225.8 -999 253 13.8
2009-04-06 09:43:41 51°13.156 2°50.926 225.8 -999 159 13.8
2009-04-06 09:43:46 51°13.156 2°50.926 225.8 0.1 162 13.8
2009-04-06 09:43:51 51°13.156 2°50.926 225.5 0.1 294 13.8
2009-04-06 09:43:56 51°13.156 2°50.926 225.4 0.2 139 13.8
2009-04-06 09:44:01 51°13.156 2°50.926 225.2 0.1 306 13.8
2009-04-06 09:44:06 51°13.156 2°50.926 225 0.1 140 13.8
2009-04-06 09:44:11 51°13.156 2°50.926 224.9 -999 275 13.8
2009-04-06 09:44:16 51°13.156 2°50.926 224.8 0.1 141 13.8
2009-04-06 09:44:21 51°13.156 2°50.926 224.6 0.1 121 13.8
2009-04-06 09:44:26 51°13.156 2°50.926 224.4 0.1 130 13.8
2009-04-06 09:44:31 51°13.156 2°50.926 224.3 -999 134 13.8
2009-04-06 09:44:36 51°13.156 2°50.926 224.2 0.1 130 13.8
2009-04-06 09:44:41 51°13.156 2°50.926 224.1 -999 121 13.8
2009-04-06 09:44:46 51°13.156 2°50.926 224 0.1 121 13.8
2009-04-06 09:44:51 51°13.156 2°50.927 223.9 -999 119 13.8
2009-04-06 09:44:56 51°13.156 2°50.927 223.9 -999 116 13.8
2009-04-06 09:45:01 51°13.156 2°50.927 223.9 0.1 127 13.8
2009-04-06 09:45:07 51°13.156 2°50.927 223.9 0.1 146 13.8
2009-04-06 09:45:11 51°13.156 2°50.927 223.8 -999 164 13.8
2009-04-06 09:45:16 51°13.156 2°50.927 223.8 -999 182 13.8
2009-04-06 09:45:21 51°13.156 2°50.927 223.8 0.1 156 13.8
2009-04-06 09:45:26 51°13.156 2°50.927 223.9 0.1 166 13.8
2009-04-06 09:45:31 51°13.156 2°50.928 224 0.1 153 13.8
2009-04-06 09:45:36 51°13.155 2°50.928 224 -999 116 13.8
2009-04-06 09:45:41 51°13.155 2°50.928 224 0.1 137 13.8
2009-04-06 09:45:46 51°13.155 2°50.928 224 -999 126 13.8
2009-04-06 09:45:51 51°13.155 2°50.928 224 0.1 133 13.8
2009-04-06 09:45:56 51°13.155 2°50.928 224 -999 134 13.8
2009-04-06 09:46:01 51°13.155 2°50.928 224 -999 170 13.8
2009-04-06 09:46:06 51°13.155 2°50.928 224.1 -999 117 13.8
2009-04-06 09:46:11 51°13.155 2°50.928 224.3 0.1 131 13.8
2009-04-06 09:46:16 51°13.155 2°50.928 224.4 -999 124 13.8
2009-04-06 09:46:21 51°13.155 2°50.928 224.6 -999 140 13.8
2009-04-06 09:46:26 51°13.155 2°50.928 224.8 -999 155 13.8
2009-04-06 09:46:31 51°13.155 2°50.928 225 -999 141 13.8
2009-04-06 09:46:36 51°13.155 2°50.928 225.1 -999 141 13.8
2009-04-06 09:46:41 51°13.155 2°50.928 225.4 -999 112 13.8
2009-04-06 09:46:47 51°13.155 2°50.928 225.6 -999 330 13.8
2009-04-06 09:46:51 51°13.155 2°50.928 225.8 -999 118 13.8
2009-04-06 09:46:56 51°13.155 2°50.928 225.8 -999 79 13.8
2009-04-06 09:47:01 51°13.155 2°50.928 225.9 -999 87 13.8
2009-04-06 09:47:07 51°13.155 2°50.928 225.9 -999 9 13.8
2009-04-06 09:47:11 51°13.155 2°50.928 225.8 -999 5 13.8
2009-04-06 09:47:16 51°13.155 2°50.928 225.8 -999 102 13.8
2009-04-06 09:47:21 51°13.155 2°50.928 225.8 -999 63 13.8
2009-04-06 09:47:26 51°13.155 2°50.929 225.8 -999 29 13.8
2009-04-06 09:47:31 51°13.155 2°50.928 225.8 -999 139 13.8
2009-04-06 09:47:36 51°13.155 2°50.929 225.8 0.1 321 13.8
2009-04-06 09:47:41 51°13.155 2°50.929 225.8 0.1 126 13.8
2009-04-06 09:47:46 51°13.155 2°50.928 225.8 -999 334 13.8
2009-04-06 09:47:51 51°13.155 2°50.929 225.7 0.1 127 13.8
2009-04-06 09:47:56 51°13.155 2°50.928 225.6 -999 335 13.8
2009-04-06 09:48:01 51°13.154 2°50.928 225.4 -999 120 13.8
2009-04-06 09:48:06 51°13.154 2°50.928 225.3 0.1 129 13.8
2009-04-06 09:48:11 51°13.154 2°50.928 225.2 -999 164 13.8
2009-04-06 09:48:16 51°13.154 2°50.928 225.1 0.1 144 13.8
2009-04-06 09:48:21 51°13.154 2°50.928 225.1 -999 284 13.8
2009-04-06 09:48:26 51°13.154 2°50.928 225.1 0.1 143 13.8
2009-04-06 09:48:31 51°13.154 2°50.928 225.1 0.1 311 13.8
2009-04-06 09:48:35 51°13.154 2°50.928 225.1 0.1 129 13.8
2009-04-06 09:48:41 51°13.154 2°50.928 225.1 -999 347 13.8
2009-04-06 09:48:46 51°13.154 2°50.928 225.1 0.1 128 13.8
2009-04-06 09:48:51 51°13.154 2°50.928 225.1 -999 51 13.8
2009-04-06 09:48:56 51°13.154 2°50.928 225.2 0.1 135 13.8
2009-04-06 09:49:01 51°13.154 2°50.928 225.2 -999 106 13.8
2009-04-06 09:49:06 51°13.153 2°50.928 225.2 0.1 138 13.8
2009-04-06 09:49:11 51°13.153 2°50.928 225.2 -999 268 13.8
2009-04-06 09:49:15 51°13.153 2°50.928 225.2 0.1 146 13.8
2009-04-06 09:49:21 51°13.153 2°50.928 225.3 0.1 306 13.8
2009-04-06 09:49:26 51°13.153 2°50.928 225.4 0.1 140 13.8
2009-04-06 09:49:31 51°13.153 2°50.928 225.5 -999 298 13.8
2009-04-06 09:49:36 51°13.153 2°50.928 225.4 0.1 133 13.8
2009-04-06 09:49:41 51°13.153 2°50.928 225.5 -999 151 13.8
2009-04-06 09:49:46 51°13.153 2°50.928 225.5 -999 156 13.8
2009-04-06 09:49:51 51°13.153 2°50.928 225.5 0.1 146 13.8
2009-04-06 09:49:56 51°13.153 2°50.928 225.5 -999 168 13.8
2009-04-06 09:50:01 51°13.153 2°50.928 225.6 0.1 142 13.8
2009-04-06 09:50:06 51°13.153 2°50.928 225.6 -999 172 13.8
2009-04-06 09:50:11 51°13.153 2°50.928 225.8 -999 146 13.8
2009-04-06 09:50:16 51°13.153 2°50.928 225.8 -999 84 13.8
2009-04-06 09:50:21 51°13.153 2°50.928 226 0.1 126 13.8
2009-04-06 09:50:26 51°13.153 2°50.928 226.1 -999 334 13.8
2009-04-06 09:50:31 51°13.153 2°50.928 226.2 0.1 144 13.8
2009-04-06 09:50:36 51°13.153 2°50.927 226.4 -999 338 13.8
2009-04-06 09:50:41 51°13.152 2°50.928 226.4 0.1 113 13.8
2009-04-06 09:50:46 51°13.153 2°50.927 226.5 -999 10 13.8
2009-04-06 09:50:51 51°13.152 2°50.927 226.5 0.1 103 13.7
2009-04-06 09:50:56 51°13.152 2°50.927 226.5 0.1 333 13.8
2009-04-06 09:51:01 51°13.152 2°50.927 226.6 -999 249 13.8
2009-04-06 09:51:06 51°13.152 2°50.927 226.6 0.1 302 13.8
2009-04-06 09:51:11 51°13.152 2°50.927 226.6 -999 102 13.8
2009-04-06 09:51:16 51°13.152 2°50.927 226.7 -999 93 13.8
2009-04-06 09:51:21 51°13.152 2°50.927 226.6 -999 94 13.8
2009-04-06 09:51:27 51°13.152 2°50.927 226.6 -999 310 13.8
2009-04-06 09:51:31 51°13.152 2°50.927 226.7 0.1 141 13.8
2009-04-06 09:51:36 51°13.152 2°50.927 226.7 0.1 307 13.7
2009-04-06 09:51:41 51°13.152 2°50.928 226.9 0.1 131 13.8
2009-04-06 09:51:47 51°13.152 2°50.927 227 -999 121 13.7
2009-04-06 09:51:51 51°13.152 2°50.927 227.1 0.1 325 13.8
2009-04-06 09:51:56 51°13.152 2°50.927 227.3 -999 336 13.8
2009-04-06 09:52:01 51°13.152 2°50.927 227.4 -999 333 13.8
2009-04-06 09:52:06 51°13.152 2°50.928 227.4 0.2 134 13.9
2009-04-06 09:52:11 51°13.152 2°50.927 227.6 0.2 324 13.8
2009-04-06 09:52:16 51°13.152 2°50.928 227.6 0.1 125 13.8
2009-04-06 09:52:21 51°13.152 2°50.927 227.7 0.1 333 13.8
2009-04-06 09:52:26 51°13.152 2°50.928 227.7 0.1 113 13.8
2009-04-06 09:52:31 51°13.152 2°50.927 227.8 0.1 352 13.8
2009-04-06 09:52:36 51°13.152 2°50.928 227.8 -999 67 13.8
2009-04-06 09:52:41 51°13.152 2°50.928 227.9 0.1 350 13.8
2009-04-06 09:52:46 51°13.152 2°50.928 228 -999 45 13.8
2009-04-06 09:52:51 51°13.152 2°50.928 228 0.1 318 13.8
2009-04-06 09:52:56 51°13.152 2°50.928 228.1 -999 175 13.8
2009-04-06 09:53:01 51°13.152 2°50.928 228.2 0.1 312 13.8
2009-04-06 09:53:06 51°13.152 2°50.928 228.2 -999 317 13.8
2009-04-06 09:53:11 51°13.152 2°50.928 228.3 -999 346 13.8
2009-04-06 09:53:16 51°13.153 2°50.928 228.4 -999 44 13.8
2009-04-06 09:53:21 51°13.153 2°50.928 228.5 0.1 327 13.8
2009-04-06 09:53:27 51°13.153 2°50.928 228.6 -999 124 13.8
2009-04-06 09:53:31 51°13.153 2°50.928 228.7 0.1 319 13.8
2009-04-06 09:53:36 51°13.153 2°50.928 228.8 -999 81 13.8
2009-04-06 09:53:41 51°13.153 2°50.927 229 -999 321 13.8
2009-04-06 09:53:47 51°13.153 2°50.927 229 0.1 300 13.8
2009-04-06 09:53:51 51°13.153 2°50.927 229.2 0.1 304 13.8
2009-04-06 09:53:56 51°13.153 2°50.927 229.3 0.1 314 13.8
2009-04-06 09:54:01 51°13.153 2°50.927 229.3 0.1 303 13.8
2009-04-06 09:54:07 51°13.153 2°50.927 229.3 -999 327 13.8
2009-04-06 09:54:11 51°13.153 2°50.927 229.2 0.1 328 13.8
2009-04-06 09:54:16 51°13.153 2°50.927 229 -999 105 13.8
2009-04-06 09:54:21 51°13.153 2°50.927 228.8 -999 353 13.8
2009-04-06 09:54:26 51°13.153 2°50.927 228.6 -999 350 13.8
2009-04-06 09:54:31 51°13.153 2°50.927 228.4 -999 160 13.8
2009-04-06 09:54:35 51°13.153 2°50.927 228 -999 319 13.8
2009-04-06 09:54:41 51°13.153 2°50.927 227.9 -999 176 13.8
2009-04-06 09:54:46 51°13.153 2°50.927 227.7 -999 315 13.8
2009-04-06 09:54:51 51°13.153 2°50.927 227.5 -999 157 13.8
2009-04-06 09:54:56 51°13.153 2°50.927 227.4 -999 313 13.8
2009-04-06 09:55:01 51°13.153 2°50.927 227.3 -999 208 13.8
2009-04-06 09:55:06 51°13.153 2°50.927 227.3 -999 262 13.8
2009-04-06 09:55:11 51°13.153 2°50.927 227.3 -999 220 13.8
2009-04-06 09:55:15 51°13.153 2°50.927 227.2 -999 168 13.8
2009-04-06 09:55:21 51°13.153 2°50.927 227.2 -999 271 13.8
2009-04-06 09:55:26 51°13.153 2°50.927 227.2 -999 186 13.8
2009-04-06 09:55:31 51°13.153 2°50.928 227.1 0.1 166 13.8
2009-04-06 09:55:36 51°13.153 2°50.928 227.1 -999 267 13.8
2009-04-06 09:55:41 51°13.153 2°50.928 227.1 -999 197 13.8
2009-04-06 09:55:46 51°13.153 2°50.928 227 -999 166 13.8
2009-04-06 09:55:51 51°13.153 2°50.928 226.8 0.1 165 13.8
2009-04-06 09:55:55 51°13.153 2°50.928 226.6 -999 253 13.8
2009-04-06 09:56:01 51°13.153 2°50.928 226.5 -999 173 13.8
2009-04-06 09:56:06 51°13.153 2°50.928 226.4 0.1 157 13.8
2009-04-06 09:56:11 51°13.153 2°50.928 226.2 -999 215 13.8
2009-04-06 09:56:16 51°13.153 2°50.928 226 -999 177 13.8
2009-04-06 09:56:21 51°13.153 2°50.928 225.9 -999 158 13.8
2009-04-06 09:56:26 51°13.153 2°50.928 225.8 -999 230 13.8
2009-04-06 09:56:31 51°13.153 2°50.928 225.8 -999 180 13.8
2009-04-06 09:56:36 51°13.153 2°50.928 225.8 -999 166 13.8
2009-04-06 09:56:41 51°13.153 2°50.928 225.6 0.1 150 13.8
2009-04-06 09:56:46 51°13.153 2°50.928 225.6 -999 209 13.8
2009-04-06 09:56:51 51°13.152 2°50.928 225.4 0.1 189 13.8
2009-04-06 09:56:56 51°13.153 2°50.928 225.3 0.1 274 13.8
2009-04-06 09:57:01 51°13.152 2°50.928 225.3 0.1 156 13.8
2009-04-06 09:57:06 51°13.152 2°50.928 225.1 0.1 148 13.8
2009-04-06 09:57:11 51°13.152 2°50.928 225.1 -999 219 13.8
2009-04-06 09:57:16 51°13.152 2°50.928 225.1 0.1 169 13.8
2009-04-06 09:57:21 51°13.152 2°50.928 225 -999 234 13.8
2009-04-06 09:57:26 51°13.152 2°50.928 225 0.1 163 13.8
2009-04-06 09:57:31 51°13.152 2°50.928 224.9 0.1 267 13.8
2009-04-06 09:57:36 51°13.152 2°50.928 225 0.1 250 13.8
2009-04-06 09:57:41 51°13.152 2°50.928 225 -999 181 13.8
2009-04-06 09:57:46 51°13.152 2°50.928 225 -999 173 13.8
2009-04-06 09:57:51 51°13.152 2°50.928 224.8 -999 214 13.8
2009-04-06 09:57:56 51°13.152 2°50.928 224.9 -999 217 13.8
2009-04-06 09:58:01 51°13.152 2°50.928 225 -999 273 13.8
2009-04-06 09:58:06 51°13.152 2°50.928 224.9 0.1 169 13.8
2009-04-06 09:58:11 51°13.152 2°50.928 224.8 0.1 289 13.8
2009-04-06 09:58:16 51°13.152 2°50.928 224.9 0.1 151 13.8
2009-04-06 09:58:21 51°13.152 2°50.928 224.8 -999 66 13.8
2009-04-06 09:58:27 51°13.152 2°50.928 224.8 0.1 131 13.8
2009-04-06 09:58:31 51°13.152 2°50.928 224.7 -999 38 13.8
2009-04-06 09:58:36 51°13.152 2°50.928 224.7 -999 197 13.8
2009-04-06 09:58:41 51°13.152 2°50.928 224.7 -999 272 13.8
2009-04-06 09:58:46 51°13.152 2°50.928 224.7 -999 188 13.8
2009-04-06 09:58:51 51°13.151 2°50.928 224.7 -999 176 13.8
2009-04-06 09:58:56 51°13.152 2°50.928 224.7 -999 294 13.8
2009-04-06 09:59:01 51°13.151 2°50.928 224.7 0.1 278 13.8
2009-04-06 09:59:06 51°13.151 2°50.928 224.7 -999 199 13.8
2009-04-06 09:59:11 51°13.151 2°50.928 224.7 -999 280 13.8
2009-04-06 09:59:16 51°13.151 2°50.928 224.7 -999 209 13.8
2009-04-06 09:59:21 51°13.152 2°50.928 224.8 -999 168 13.8
2009-04-06 09:59:26 51°13.152 2°50.928 224.7 0.1 311 13.8
2009-04-06 09:59:31 51°13.151 2°50.928 224.7 0.1 143 13.8
2009-04-06 09:59:36 51°13.152 2°50.928 224.6 0.1 316 13.8
2009-04-06 09:59:41 51°13.152 2°50.928 224.7 0.1 136 13.8
2009-04-06 09:59:46 51°13.152 2°50.928 224.7 0.1 327 13.8
2009-04-06 09:59:51 51°13.152 2°50.928 224.7 0.1 124 13.8
2009-04-06 09:59:56 51°13.152 2°50.928 224.8 0.2 313 13.8
2009-04-06 10:00:01 51°13.152 2°50.928 225 -999 209 13.8
2009-04-06 10:00:06 51°13.152 2°50.928 225.1 0.1 328 13.8
2009-04-06 10:00:11 51°13.152 2°50.928 225.3 -999 43 13.8
2009-04-06 10:00:16 51°13.152 2°50.928 225.5 0.1 326 13.8
2009-04-06 10:00:21 51°13.152 2°50.928 225.8 -999 354 13.8
2009-04-06 10:00:27 51°13.152 2°50.928 226 0.1 349 13.8
2009-04-06 10:00:31 51°13.152 2°50.928 226.1 -999 40 13.8
2009-04-06 10:00:36 51°13.152 2°50.928 226.3 0.2 324 13.8
2009-04-06 10:00:41 51°13.152 2°50.928 226.4 -999 3 13.8
2009-04-06 10:00:47 51°13.153 2°50.928 226.4 0.1 333 13.8
2009-04-06 10:00:51 51°13.153 2°50.928 226.4 0.1 339 13.8
2009-04-06 10:00:56 51°13.153 2°50.928 226.5 -999 351 13.8
2009-04-06 10:01:01 51°13.153 2°50.928 226.5 0.1 323 13.8
2009-04-06 10:01:06 51°13.153 2°50.928 226.6 -999 333 13.8
2009-04-06 10:01:11 51°13.153 2°50.928 226.5 0.1 321 13.8
2009-04-06 10:01:16 51°13.153 2°50.928 226.6 0.1 318 13.8
2009-04-06 10:01:21 51°13.154 2°50.928 226.5 -999 295 13.8
2009-04-06 10:01:26 51°13.154 2°50.928 226.5 0.1 297 13.8
2009-04-06 10:01:31 51°13.154 2°50.928 226.5 0.1 275 13.8
2009-04-06 10:01:36 51°13.153 2°50.928 226.5 0.1 286 13.8
2009-04-06 10:01:41 51°13.153 2°50.927 226.4 0.1 159 13.8
2009-04-06 10:01:46 51°13.153 2°50.927 226.1 0.1 288 13.8